sensor_id;sensor_type;location;lat;lon;timestamp;pressure;altitude;pressure_sealevel;temperature;humidity
8229;BME280;4155;50.118;8.714;2022-12-05T00:01:15;99925.72;;;3.22;91.43
8229;BME280;4155;50.118;8.714;2022-12-05T00:03:43;99924.34;;;3.35;91.53
8229;BME280;4155;50.118;8.714;2022-12-05T00:06:11;99923.69;;;3.33;90.81
8229;BME280;4155;50.118;8.714;2022-12-05T00:08:40;99926.88;;;3.19;90.12
8229;BME280;4155;50.118;8.714;2022-12-05T00:11:11;99924.59;;;3.24;90.52
8229;BME280;4155;50.118;8.714;2022-12-05T00:13:40;99928.31;;;3.31;90.46
8229;BME280;4155;50.118;8.714;2022-12-05T00:16:09;99923.66;;;2.98;90.56
8229;BME280;4155;50.118;8.714;2022-12-05T00:18:38;99927.16;;;2.98;91.37
8229;BME280;4155;50.118;8.714;2022-12-05T00:21:09;99928.97;;;3.15;91.70
8229;BME280;4155;50.118;8.714;2022-12-05T00:23:40;99925.06;;;3.19;91.16
8229;BME280;4155;50.118;8.714;2022-12-05T00:26:09;99930.03;;;3.23;91.39
8229;BME280;4155;50.118;8.714;2022-12-05T00:28:37;99940.31;;;3.26;90.84
8229;BME280;4155;50.118;8.714;2022-12-05T00:31:07;99941.69;;;3.12;91.20
8229;BME280;4155;50.118;8.714;2022-12-05T00:33:35;99947.09;;;3.20;91.25
8229;BME280;4155;50.118;8.714;2022-12-05T00:36:05;99949.56;;;3.22;91.08
8229;BME280;4155;50.118;8.714;2022-12-05T00:38:34;99956.28;;;2.98;90.69
8229;BME280;4155;50.118;8.714;2022-12-05T00:41:03;99952.34;;;3.02;91.68
8229;BME280;4155;50.118;8.714;2022-12-05T00:43:31;99943.44;;;3.03;92.47
8229;BME280;4155;50.118;8.714;2022-12-05T00:46:00;99955.25;;;3.27;91.99
8229;BME280;4155;50.118;8.714;2022-12-05T00:48:29;99962.16;;;3.19;90.81
8229;BME280;4155;50.118;8.714;2022-12-05T00:51:00;99961.00;;;3.22;91.49
8229;BME280;4155;50.118;8.714;2022-12-05T00:53:28;99964.94;;;3.36;90.40
8229;BME280;4155;50.118;8.714;2022-12-05T00:56:00;99967.06;;;3.32;90.31
8229;BME280;4155;50.118;8.714;2022-12-05T00:58:29;99964.94;;;3.36;89.91
8229;BME280;4155;50.118;8.714;2022-12-05T01:00:59;99971.31;;;3.43;90.55
8229;BME280;4155;50.118;8.714;2022-12-05T01:03:31;99984.78;;;3.32;90.41
8229;BME280;4155;50.118;8.714;2022-12-05T01:05:59;99974.53;;;3.37;89.78
8229;BME280;4155;50.118;8.714;2022-12-05T01:08:27;99976.00;;;3.31;90.58
8229;BME280;4155;50.118;8.714;2022-12-05T01:10:56;99978.72;;;3.22;90.75
8229;BME280;4155;50.118;8.714;2022-12-05T01:13:25;99989.47;;;3.20;91.38
8229;BME280;4155;50.118;8.714;2022-12-05T01:15:54;99993.94;;;3.37;91.95
8229;BME280;4155;50.118;8.714;2022-12-05T01:18:23;99987.72;;;3.46;91.33
8229;BME280;4155;50.118;8.714;2022-12-05T01:20:51;99995.53;;;3.48;91.48
8229;BME280;4155;50.118;8.714;2022-12-05T01:23:20;99989.94;;;3.51;91.02
8229;BME280;4155;50.118;8.714;2022-12-05T01:25:49;99998.56;;;3.35;90.86
8229;BME280;4155;50.118;8.714;2022-12-05T01:28:18;99998.94;;;3.23;91.39
8229;BME280;4155;50.118;8.714;2022-12-05T01:30:46;99995.75;;;3.37;91.27
8229;BME280;4155;50.118;8.714;2022-12-05T01:33:16;99985.63;;;3.32;91.60
8229;BME280;4155;50.118;8.714;2022-12-05T01:35:44;99995.28;;;3.24;92.35
8229;BME280;4155;50.118;8.714;2022-12-05T01:38:11;99992.25;;;3.36;91.74
8229;BME280;4155;50.118;8.714;2022-12-05T01:40:40;99995.16;;;3.43;91.74
8229;BME280;4155;50.118;8.714;2022-12-05T01:43:13;100007.81;;;3.31;91.11
8229;BME280;4155;50.118;8.714;2022-12-05T01:45:42;100002.41;;;3.59;91.38
8229;BME280;4155;50.118;8.714;2022-12-05T01:48:13;99996.81;;;3.62;90.56
8229;BME280;4155;50.118;8.714;2022-12-05T01:50:45;100006.38;;;3.55;90.36
8229;BME280;4155;50.118;8.714;2022-12-05T01:53:14;100005.44;;;3.28;90.82
8229;BME280;4155;50.118;8.714;2022-12-05T01:55:43;100002.66;;;3.30;91.42
8229;BME280;4155;50.118;8.714;2022-12-05T01:58:12;100008.38;;;3.25;92.20
8229;BME280;4155;50.118;8.714;2022-12-05T02:00:40;100006.41;;;3.27;92.39
8229;BME280;4155;50.118;8.714;2022-12-05T02:03:12;100005.50;;;3.18;92.31
8229;BME280;4155;50.118;8.714;2022-12-05T02:05:41;100006.25;;;3.29;92.94
8229;BME280;4155;50.118;8.714;2022-12-05T02:08:10;100007.56;;;3.42;93.11
8229;BME280;4155;50.118;8.714;2022-12-05T02:10:40;100003.19;;;3.51;93.12
8229;BME280;4155;50.118;8.714;2022-12-05T02:13:20;100011.00;;;3.53;92.00
8229;BME280;4155;50.118;8.714;2022-12-05T02:16:00;100008.09;;;3.46;92.53
8229;BME280;4155;50.118;8.714;2022-12-05T02:18:44;100008.69;;;3.58;92.25
8229;BME280;4155;50.118;8.714;2022-12-05T02:21:33;100014.22;;;3.46;92.07
8229;BME280;4155;50.118;8.714;2022-12-05T02:27:25;100016.44;;;3.51;92.29
8229;BME280;4155;50.118;8.714;2022-12-05T02:30:07;100021.59;;;3.53;92.45
8229;BME280;4155;50.118;8.714;2022-12-05T02:32:50;100012.63;;;3.71;91.96
8229;BME280;4155;50.118;8.714;2022-12-05T02:35:31;100017.72;;;3.65;91.65
8229;BME280;4155;50.118;8.714;2022-12-05T02:38:13;100027.56;;;3.72;91.62
8229;BME280;4155;50.118;8.714;2022-12-05T02:40:48;100024.16;;;3.62;90.76
8229;BME280;4155;50.118;8.714;2022-12-05T02:43:21;100017.34;;;3.60;90.63
8229;BME280;4155;50.118;8.714;2022-12-05T02:45:54;100016.06;;;3.46;91.43
8229;BME280;4155;50.118;8.714;2022-12-05T02:48:25;100021.50;;;3.44;91.97
8229;BME280;4155;50.118;8.714;2022-12-05T02:50:56;100009.91;;;3.45;92.45
8229;BME280;4155;50.118;8.714;2022-12-05T02:53:26;100004.38;;;3.39;92.48
8229;BME280;4155;50.118;8.714;2022-12-05T02:55:56;100014.84;;;3.40;92.53
8229;BME280;4155;50.118;8.714;2022-12-05T02:58:30;100010.00;;;3.54;92.87
8229;BME280;4155;50.118;8.714;2022-12-05T03:01:02;100006.56;;;3.61;92.00
8229;BME280;4155;50.118;8.714;2022-12-05T03:03:30;100003.84;;;3.71;92.38
8229;BME280;4155;50.118;8.714;2022-12-05T03:06:02;100007.72;;;3.76;92.01
8229;BME280;4155;50.118;8.714;2022-12-05T03:08:34;100016.41;;;3.87;92.11
8229;BME280;4155;50.118;8.714;2022-12-05T03:11:03;100010.53;;;3.75;91.75
8229;BME280;4155;50.118;8.714;2022-12-05T03:13:36;100014.69;;;3.77;91.08
8229;BME280;4155;50.118;8.714;2022-12-05T03:16:11;100017.66;;;3.74;90.90
8229;BME280;4155;50.118;8.714;2022-12-05T03:18:43;100022.47;;;3.79;91.12
8229;BME280;4155;50.118;8.714;2022-12-05T03:21:19;100018.88;;;3.62;91.63
8229;BME280;4155;50.118;8.714;2022-12-05T03:23:50;100027.25;;;3.58;92.51
8229;BME280;4155;50.118;8.714;2022-12-05T03:26:30;100028.00;;;3.50;93.15
8229;BME280;4155;50.118;8.714;2022-12-05T03:29:11;100024.00;;;3.64;92.43
8229;BME280;4155;50.118;8.714;2022-12-05T03:31:52;100031.56;;;3.59;92.45
8229;BME280;4155;50.118;8.714;2022-12-05T03:34:30;100032.25;;;3.61;93.08
8229;BME280;4155;50.118;8.714;2022-12-05T03:37:04;100035.91;;;3.77;92.30
8229;BME280;4155;50.118;8.714;2022-12-05T03:39:34;100040.97;;;3.89;92.18
8229;BME280;4155;50.118;8.714;2022-12-05T03:42:09;100052.31;;;3.99;91.43
8229;BME280;4155;50.118;8.714;2022-12-05T03:44:44;100050.75;;;3.88;90.43
8229;BME280;4155;50.118;8.714;2022-12-05T03:47:17;100049.44;;;3.92;91.23
8229;BME280;4155;50.118;8.714;2022-12-05T03:49:50;100045.28;;;4.07;90.58
8229;BME280;4155;50.118;8.714;2022-12-05T03:52:21;100054.41;;;4.13;90.73
8229;BME280;4155;50.118;8.714;2022-12-05T03:54:54;100058.97;;;4.21;89.93
8229;BME280;4155;50.118;8.714;2022-12-05T03:57:24;100064.94;;;4.23;89.98
8229;BME280;4155;50.118;8.714;2022-12-05T03:59:56;100068.66;;;4.30;89.54
8229;BME280;4155;50.118;8.714;2022-12-05T04:02:30;100068.81;;;4.28;89.32
8229;BME280;4155;50.118;8.714;2022-12-05T04:05:03;100060.47;;;4.23;89.60
8229;BME280;4155;50.118;8.714;2022-12-05T04:07:34;100064.94;;;4.23;90.01
8229;BME280;4155;50.118;8.714;2022-12-05T04:10:06;100064.75;;;4.16;89.95
8229;BME280;4155;50.118;8.714;2022-12-05T04:12:38;100060.78;;;4.20;90.65
8229;BME280;4155;50.118;8.714;2022-12-05T04:15:12;100064.69;;;4.34;90.48
8229;BME280;4155;50.118;8.714;2022-12-05T04:17:46;100064.09;;;4.40;89.68
8229;BME280;4155;50.118;8.714;2022-12-05T04:20:23;100060.09;;;4.18;88.94
8229;BME280;4155;50.118;8.714;2022-12-05T04:23:10;100067.44;;;4.24;90.97
8229;BME280;4155;50.118;8.714;2022-12-05T04:25:49;100071.25;;;4.04;92.03
8229;BME280;4155;50.118;8.714;2022-12-05T04:28:26;100076.78;;;4.11;91.86
8229;BME280;4155;50.118;8.714;2022-12-05T04:31:01;100073.22;;;4.20;91.64
8229;BME280;4155;50.118;8.714;2022-12-05T04:33:35;100069.41;;;4.22;91.83
8229;BME280;4155;50.118;8.714;2022-12-05T04:36:09;100069.31;;;4.32;91.84
8229;BME280;4155;50.118;8.714;2022-12-05T04:38:43;100072.28;;;4.29;91.38
8229;BME280;4155;50.118;8.714;2022-12-05T04:41:18;100071.91;;;4.24;92.13
8229;BME280;4155;50.118;8.714;2022-12-05T04:43:47;100075.13;;;4.27;91.68
8229;BME280;4155;50.118;8.714;2022-12-05T04:46:18;100079.44;;;4.28;91.80
8229;BME280;4155;50.118;8.714;2022-12-05T04:48:52;100075.31;;;4.34;91.72
8229;BME280;4155;50.118;8.714;2022-12-05T04:51:24;100079.53;;;4.19;91.63
8229;BME280;4155;50.118;8.714;2022-12-05T04:53:54;100081.25;;;4.10;92.70
8229;BME280;4155;50.118;8.714;2022-12-05T04:56:26;100087.56;;;4.09;92.36
8229;BME280;4155;50.118;8.714;2022-12-05T04:58:55;100092.16;;;4.25;92.79
8229;BME280;4155;50.118;8.714;2022-12-05T05:01:27;100086.19;;;4.23;93.02
8229;BME280;4155;50.118;8.714;2022-12-05T05:04:02;100088.75;;;4.32;92.53
8229;BME280;4155;50.118;8.714;2022-12-05T05:06:35;100094.06;;;4.15;91.94
8229;BME280;4155;50.118;8.714;2022-12-05T05:09:03;100091.41;;;4.15;92.84
8229;BME280;4155;50.118;8.714;2022-12-05T05:11:33;100089.38;;;4.09;93.26
8229;BME280;4155;50.118;8.714;2022-12-05T05:14:01;100089.31;;;4.18;93.35
8229;BME280;4155;50.118;8.714;2022-12-05T05:16:31;100100.44;;;4.04;92.66
8229;BME280;4155;50.118;8.714;2022-12-05T05:19:00;100104.31;;;3.92;92.94
8229;BME280;4155;50.118;8.714;2022-12-05T05:21:31;100096.91;;;3.95;94.13
8229;BME280;4155;50.118;8.714;2022-12-05T05:23:58;100103.72;;;3.98;93.21
8229;BME280;4155;50.118;8.714;2022-12-05T05:26:28;100106.44;;;4.06;93.38
8229;BME280;4155;50.118;8.714;2022-12-05T05:28:56;100100.06;;;4.17;92.78
8229;BME280;4155;50.118;8.714;2022-12-05T05:31:24;100102.34;;;4.12;92.91
8229;BME280;4155;50.118;8.714;2022-12-05T05:33:53;100110.13;;;4.13;92.93
8229;BME280;4155;50.118;8.714;2022-12-05T05:36:25;100107.97;;;4.09;92.28
8229;BME280;4155;50.118;8.714;2022-12-05T05:38:55;100110.97;;;4.14;91.29
8229;BME280;4155;50.118;8.714;2022-12-05T05:41:24;100112.75;;;4.05;91.70
8229;BME280;4155;50.118;8.714;2022-12-05T05:43:53;100107.63;;;4.29;91.86
8229;BME280;4155;50.118;8.714;2022-12-05T05:46:23;100124.88;;;4.07;91.91
8229;BME280;4155;50.118;8.714;2022-12-05T05:48:51;100109.78;;;4.08;92.64
8229;BME280;4155;50.118;8.714;2022-12-05T05:51:21;100116.50;;;4.02;93.00
8229;BME280;4155;50.118;8.714;2022-12-05T05:53:51;100106.06;;;4.19;92.93
8229;BME280;4155;50.118;8.714;2022-12-05T05:56:19;100105.22;;;4.18;92.31
8229;BME280;4155;50.118;8.714;2022-12-05T05:58:53;100113.88;;;4.20;92.38
8229;BME280;4155;50.118;8.714;2022-12-05T06:01:21;100109.78;;;4.26;92.64
8229;BME280;4155;50.118;8.714;2022-12-05T06:03:49;100101.34;;;4.13;92.47
8229;BME280;4155;50.118;8.714;2022-12-05T06:06:18;100097.69;;;4.14;92.57
8229;BME280;4155;50.118;8.714;2022-12-05T06:08:48;100097.94;;;4.20;92.43
8229;BME280;4155;50.118;8.714;2022-12-05T06:11:17;100100.00;;;4.26;92.72
8229;BME280;4155;50.118;8.714;2022-12-05T06:13:52;100100.19;;;4.33;92.13
8229;BME280;4155;50.118;8.714;2022-12-05T06:16:20;100107.31;;;4.32;91.69
8229;BME280;4155;50.118;8.714;2022-12-05T06:18:48;100111.69;;;4.16;92.04
8229;BME280;4155;50.118;8.714;2022-12-05T06:21:16;100113.03;;;4.20;92.44
8229;BME280;4155;50.118;8.714;2022-12-05T06:23:44;100113.38;;;4.25;92.81
8229;BME280;4155;50.118;8.714;2022-12-05T06:26:15;100115.13;;;4.34;93.02
8229;BME280;4155;50.118;8.714;2022-12-05T06:28:46;100113.47;;;4.33;92.51
8229;BME280;4155;50.118;8.714;2022-12-05T06:31:14;100117.34;;;4.39;92.19
8229;BME280;4155;50.118;8.714;2022-12-05T06:33:43;100129.47;;;4.23;92.70
8229;BME280;4155;50.118;8.714;2022-12-05T06:36:13;100131.38;;;4.31;91.85
8229;BME280;4155;50.118;8.714;2022-12-05T06:38:41;100126.88;;;4.31;92.24
8229;BME280;4155;50.118;8.714;2022-12-05T06:41:11;100130.88;;;4.35;92.46
8229;BME280;4155;50.118;8.714;2022-12-05T06:43:41;100130.69;;;4.47;92.10
8229;BME280;4155;50.118;8.714;2022-12-05T06:46:11;100135.13;;;4.46;91.52
8229;BME280;4155;50.118;8.714;2022-12-05T06:48:39;100146.38;;;4.40;91.36
8229;BME280;4155;50.118;8.714;2022-12-05T06:51:08;100150.59;;;4.51;91.43
8229;BME280;4155;50.118;8.714;2022-12-05T06:53:37;100153.50;;;4.40;91.45
8229;BME280;4155;50.118;8.714;2022-12-05T06:56:07;100152.63;;;4.57;90.95
8229;BME280;4155;50.118;8.714;2022-12-05T06:58:37;100146.28;;;4.50;90.63
8229;BME280;4155;50.118;8.714;2022-12-05T07:01:10;100150.28;;;4.54;90.02
8229;BME280;4155;50.118;8.714;2022-12-05T07:03:56;100145.69;;;4.38;90.04
8229;BME280;4155;50.118;8.714;2022-12-05T07:06:25;100150.78;;;4.31;91.09
8229;BME280;4155;50.118;8.714;2022-12-05T07:08:53;100162.31;;;4.22;91.21
8229;BME280;4155;50.118;8.714;2022-12-05T07:11:21;100167.53;;;4.32;91.19
8229;BME280;4155;50.118;8.714;2022-12-05T07:13:48;100170.13;;;4.42;91.42
8229;BME280;4155;50.118;8.714;2022-12-05T07:16:17;100169.44;;;4.57;90.69
8229;BME280;4155;50.118;8.714;2022-12-05T07:18:45;100166.16;;;4.46;90.04
8229;BME280;4155;50.118;8.714;2022-12-05T07:21:13;100180.81;;;4.32;90.67
8229;BME280;4155;50.118;8.714;2022-12-05T07:23:44;100179.63;;;4.26;91.08
8229;BME280;4155;50.118;8.714;2022-12-05T07:26:13;100179.63;;;4.26;91.40
8229;BME280;4155;50.118;8.714;2022-12-05T07:28:41;100184.28;;;4.32;91.33
8229;BME280;4155;50.118;8.714;2022-12-05T07:31:12;100177.72;;;4.37;91.76
8229;BME280;4155;50.118;8.714;2022-12-05T07:33:41;100185.69;;;4.19;91.61
8229;BME280;4155;50.118;8.714;2022-12-05T07:36:11;100186.19;;;4.40;92.02
8229;BME280;4155;50.118;8.714;2022-12-05T07:38:39;100187.31;;;4.55;91.22
8229;BME280;4155;50.118;8.714;2022-12-05T07:41:10;100193.50;;;4.38;91.84
8229;BME280;4155;50.118;8.714;2022-12-05T07:43:39;100196.97;;;4.39;91.49
8229;BME280;4155;50.118;8.714;2022-12-05T07:46:08;100205.69;;;4.49;90.99
8229;BME280;4155;50.118;8.714;2022-12-05T07:48:37;100200.97;;;4.60;90.98
8229;BME280;4155;50.118;8.714;2022-12-05T07:51:08;100213.81;;;4.47;90.73
8229;BME280;4155;50.118;8.714;2022-12-05T07:53:36;100207.69;;;4.47;90.85
8229;BME280;4155;50.118;8.714;2022-12-05T07:56:06;100208.50;;;4.47;90.97
8229;BME280;4155;50.118;8.714;2022-12-05T07:58:34;100209.34;;;4.48;90.57
8229;BME280;4155;50.118;8.714;2022-12-05T08:01:06;100212.81;;;4.48;90.27
8229;BME280;4155;50.118;8.714;2022-12-05T08:03:34;100215.25;;;4.59;90.28
8229;BME280;4155;50.118;8.714;2022-12-05T08:06:03;100220.94;;;4.47;90.70
8229;BME280;4155;50.118;8.714;2022-12-05T08:08:33;100225.19;;;4.40;90.63
8229;BME280;4155;50.118;8.714;2022-12-05T08:11:04;100226.47;;;4.53;90.64
8229;BME280;4155;50.118;8.714;2022-12-05T08:13:33;100224.88;;;4.60;90.42
8229;BME280;4155;50.118;8.714;2022-12-05T08:16:01;100224.47;;;4.73;90.34
8229;BME280;4155;50.118;8.714;2022-12-05T08:18:30;100222.94;;;4.88;89.82
8229;BME280;4155;50.118;8.714;2022-12-05T08:21:01;100227.16;;;4.99;88.39
8229;BME280;4155;50.118;8.714;2022-12-05T08:23:29;100227.88;;;5.09;88.02
8229;BME280;4155;50.118;8.714;2022-12-05T08:26:01;100228.09;;;5.16;87.25
8229;BME280;4155;50.118;8.714;2022-12-05T08:28:30;100231.53;;;5.08;87.95
8229;BME280;4155;50.118;8.714;2022-12-05T08:31:03;100230.25;;;5.12;87.93
8229;BME280;4155;50.118;8.714;2022-12-05T08:33:30;100233.63;;;4.97;87.26
8229;BME280;4155;50.118;8.714;2022-12-05T08:35:59;100241.97;;;5.02;87.80
8229;BME280;4155;50.118;8.714;2022-12-05T08:38:31;100246.06;;;4.96;87.87
8229;BME280;4155;50.118;8.714;2022-12-05T08:41:02;100254.06;;;5.22;87.93
8229;BME280;4155;50.118;8.714;2022-12-05T08:43:31;100249.69;;;5.13;87.62
8229;BME280;4155;50.118;8.714;2022-12-05T08:46:00;100254.78;;;5.06;87.67
8229;BME280;4155;50.118;8.714;2022-12-05T08:48:29;100265.19;;;5.00;88.39
8229;BME280;4155;50.118;8.714;2022-12-05T08:50:58;100267.56;;;4.85;89.01
8229;BME280;4155;50.118;8.714;2022-12-05T08:53:26;100278.94;;;4.95;89.22
8229;BME280;4155;50.118;8.714;2022-12-05T08:55:53;100268.00;;;4.98;88.57
8229;BME280;4155;50.118;8.714;2022-12-05T08:58:22;100277.56;;;5.09;88.40
8229;BME280;4155;50.118;8.714;2022-12-05T09:00:50;100274.81;;;5.18;88.69
8229;BME280;4155;50.118;8.714;2022-12-05T09:03:18;100274.75;;;5.36;87.92
8229;BME280;4155;50.118;8.714;2022-12-05T09:05:46;100278.09;;;5.64;89.19
8229;BME280;4155;50.118;8.714;2022-12-05T09:08:20;100267.69;;;6.21;92.62
8229;BME280;4155;50.118;8.714;2022-12-05T09:10:47;100276.25;;;6.41;90.86
8229;BME280;4155;50.118;8.714;2022-12-05T09:13:15;100280.44;;;6.01;87.06
8229;BME280;4155;50.118;8.714;2022-12-05T09:15:44;100289.75;;;6.05;86.34
8229;BME280;4155;50.118;8.714;2022-12-05T09:18:12;100295.53;;;6.35;86.30
8229;BME280;4155;50.118;8.714;2022-12-05T09:20:40;100287.03;;;6.31;86.37
8229;BME280;4155;50.118;8.714;2022-12-05T09:23:08;100291.81;;;6.20;83.94
8229;BME280;4155;50.118;8.714;2022-12-05T09:25:41;100284.06;;;5.92;84.42
8229;BME280;4155;50.118;8.714;2022-12-05T09:28:09;100289.47;;;5.82;85.05
8229;BME280;4155;50.118;8.714;2022-12-05T09:30:36;100300.03;;;5.66;85.81
8229;BME280;4155;50.118;8.714;2022-12-05T09:33:05;100300.47;;;5.54;86.75
8229;BME280;4155;50.118;8.714;2022-12-05T09:35:33;100310.69;;;5.40;86.83
8229;BME280;4155;50.118;8.714;2022-12-05T09:38:05;100298.88;;;5.17;87.92
8229;BME280;4155;50.118;8.714;2022-12-05T09:40:32;100303.03;;;5.37;87.56
8229;BME280;4155;50.118;8.714;2022-12-05T09:43:04;100301.09;;;5.47;87.63
8229;BME280;4155;50.118;8.714;2022-12-05T09:45:36;100300.25;;;5.47;87.85
8229;BME280;4155;50.118;8.714;2022-12-05T09:48:10;100300.56;;;5.18;88.86
8229;BME280;4155;50.118;8.714;2022-12-05T09:50:43;100298.53;;;5.38;88.79
8229;BME280;4155;50.118;8.714;2022-12-05T09:53:21;100297.53;;;5.39;88.06
8229;BME280;4155;50.118;8.714;2022-12-05T09:55:52;100297.00;;;5.53;88.98
8229;BME280;4155;50.118;8.714;2022-12-05T09:58:40;100302.44;;;5.51;88.81
8229;BME280;4155;50.118;8.714;2022-12-05T10:01:20;100297.84;;;5.62;88.14
8229;BME280;4155;50.118;8.714;2022-12-05T10:04:02;100295.06;;;5.71;87.81
8229;BME280;4155;50.118;8.714;2022-12-05T10:06:36;100296.91;;;5.71;87.99
8229;BME280;4155;50.118;8.714;2022-12-05T10:09:18;100296.34;;;5.59;88.52
8229;BME280;4155;50.118;8.714;2022-12-05T10:11:54;100290.63;;;5.80;87.94
8229;BME280;4155;50.118;8.714;2022-12-05T10:14:31;100301.22;;;5.72;87.24
8229;BME280;4155;50.118;8.714;2022-12-05T10:17:04;100294.78;;;5.82;87.01
8229;BME280;4155;50.118;8.714;2022-12-05T10:19:40;100293.78;;;5.84;86.86
8229;BME280;4155;50.118;8.714;2022-12-05T10:22:12;100293.78;;;5.75;87.00
8229;BME280;4155;50.118;8.714;2022-12-05T10:24:48;100288.28;;;5.43;87.50
8229;BME280;4155;50.118;8.714;2022-12-05T10:27:20;100290.56;;;5.64;87.87
8229;BME280;4155;50.118;8.714;2022-12-05T10:29:52;100280.34;;;5.85;87.42
8229;BME280;4155;50.118;8.714;2022-12-05T10:32:29;100272.25;;;5.95;87.63
8229;BME280;4155;50.118;8.714;2022-12-05T10:35:06;100279.44;;;6.02;87.55
8229;BME280;4155;50.118;8.714;2022-12-05T10:37:42;100281.78;;;6.05;86.87
8229;BME280;4155;50.118;8.714;2022-12-05T10:40:13;100276.06;;;5.92;86.85
8229;BME280;4155;50.118;8.714;2022-12-05T10:42:41;100284.91;;;5.67;87.18
8229;BME280;4155;50.118;8.714;2022-12-05T10:45:14;100284.63;;;5.78;88.03
8229;BME280;4155;50.118;8.714;2022-12-05T10:47:42;100279.50;;;5.85;87.10
8229;BME280;4155;50.118;8.714;2022-12-05T10:50:21;100273.75;;;5.63;87.80
8229;BME280;4155;50.118;8.714;2022-12-05T10:52:51;100268.13;;;5.66;88.64
8229;BME280;4155;50.118;8.714;2022-12-05T10:55:19;100269.00;;;5.75;88.67
8229;BME280;4155;50.118;8.714;2022-12-05T10:57:50;100258.94;;;5.61;88.19
8229;BME280;4155;50.118;8.714;2022-12-05T11:00:22;100266.34;;;5.75;88.66
8229;BME280;4155;50.118;8.714;2022-12-05T11:02:57;100257.44;;;5.58;88.86
8229;BME280;4155;50.118;8.714;2022-12-05T11:05:30;100253.88;;;5.75;88.29
8229;BME280;4155;50.118;8.714;2022-12-05T11:08:00;100258.09;;;5.60;89.14
8229;BME280;4155;50.118;8.714;2022-12-05T11:10:31;100258.31;;;5.67;88.40
8229;BME280;4155;50.118;8.714;2022-12-05T11:13:00;100256.03;;;5.80;88.44
8229;BME280;4155;50.118;8.714;2022-12-05T11:15:43;100256.69;;;6.08;88.42
8229;BME280;4155;50.118;8.714;2022-12-05T11:18:26;100253.19;;;6.16;87.79
8229;BME280;4155;50.118;8.714;2022-12-05T11:21:07;100266.88;;;6.37;86.65
8229;BME280;4155;50.118;8.714;2022-12-05T11:23:35;100267.19;;;6.18;86.29
8229;BME280;4155;50.118;8.714;2022-12-05T11:26:04;100264.66;;;6.08;86.49
8229;BME280;4155;50.118;8.714;2022-12-05T11:28:41;100267.47;;;5.98;86.88
8229;BME280;4155;50.118;8.714;2022-12-05T11:31:20;100268.63;;;6.04;86.43
8229;BME280;4155;50.118;8.714;2022-12-05T11:34:00;100270.63;;;6.02;85.99
8229;BME280;4155;50.118;8.714;2022-12-05T11:36:36;100276.28;;;5.99;86.33
8229;BME280;4155;50.118;8.714;2022-12-05T11:39:09;100273.56;;;5.91;86.56
8229;BME280;4155;50.118;8.714;2022-12-05T11:41:49;100277.16;;;5.81;86.61
8229;BME280;4155;50.118;8.714;2022-12-05T11:44:31;100276.81;;;5.76;86.66
8229;BME280;4155;50.118;8.714;2022-12-05T11:47:10;100272.72;;;5.56;88.00
8229;BME280;4155;50.118;8.714;2022-12-05T11:49:56;100273.84;;;5.79;88.11
8229;BME280;4155;50.118;8.714;2022-12-05T11:52:35;100269.09;;;5.91;87.87
8229;BME280;4155;50.118;8.714;2022-12-05T11:55:14;100277.91;;;5.92;88.33
8229;BME280;4155;50.118;8.714;2022-12-05T11:58:07;100274.25;;;5.93;87.72
8229;BME280;4155;50.118;8.714;2022-12-05T12:00:50;100274.94;;;6.03;87.50
8229;BME280;4155;50.118;8.714;2022-12-05T12:03:46;100265.94;;;6.62;92.52
8229;BME280;4155;50.118;8.714;2022-12-05T12:06:27;100270.78;;;6.75;91.18
8229;BME280;4155;50.118;8.714;2022-12-05T12:09:14;100273.75;;;6.40;86.95
8229;BME280;4155;50.118;8.714;2022-12-05T12:11:50;100266.75;;;6.38;86.21
8229;BME280;4155;50.118;8.714;2022-12-05T12:14:25;100264.88;;;6.23;86.47
8229;BME280;4155;50.118;8.714;2022-12-05T12:17:05;100274.53;;;6.24;86.58
8229;BME280;4155;50.118;8.714;2022-12-05T12:22:42;100268.09;;;5.92;87.86
8229;BME280;4155;50.118;8.714;2022-12-05T12:25:23;100269.38;;;5.88;87.61
8229;BME280;4155;50.118;8.714;2022-12-05T12:28:03;100269.00;;;5.75;87.85
8229;BME280;4155;50.118;8.714;2022-12-05T12:30:41;100260.19;;;5.82;88.31
8229;BME280;4155;50.118;8.714;2022-12-05T12:33:15;100266.63;;;5.64;88.36
8229;BME280;4155;50.118;8.714;2022-12-05T12:35:55;100267.44;;;5.90;88.50
8229;BME280;4155;50.118;8.714;2022-12-05T12:38:46;100265.22;;;5.86;88.31
8229;BME280;4155;50.118;8.714;2022-12-05T12:41:30;100266.81;;;5.70;89.27
8229;BME280;4155;50.118;8.714;2022-12-05T12:44:07;100272.72;;;5.56;89.51
8229;BME280;4155;50.118;8.714;2022-12-05T12:46:46;100270.63;;;5.68;89.66
8229;BME280;4155;50.118;8.714;2022-12-05T12:49:31;100268.13;;;5.66;89.53
8229;BME280;4155;50.118;8.714;2022-12-05T12:52:04;100259.44;;;5.56;89.59
8229;BME280;4155;50.118;8.714;2022-12-05T12:54:51;100269.47;;;5.70;89.30
8229;BME280;4155;50.118;8.714;2022-12-05T12:57:39;100266.19;;;5.76;89.34
8229;BME280;4155;50.118;8.714;2022-12-05T13:00:21;100260.41;;;5.55;89.55
8229;BME280;4155;50.118;8.714;2022-12-05T13:02:54;100260.53;;;5.79;90.18
8229;BME280;4155;50.118;8.714;2022-12-05T13:05:30;100256.53;;;5.84;89.46
8229;BME280;4155;50.118;8.714;2022-12-05T13:08:03;100266.63;;;5.72;89.36
8229;BME280;4155;50.118;8.714;2022-12-05T13:10:36;100273.09;;;5.95;88.49
8229;BME280;4155;50.118;8.714;2022-12-05T13:13:10;100270.97;;;5.73;89.12
8229;BME280;4155;50.118;8.714;2022-12-05T13:15:42;100274.25;;;5.93;88.77
8229;BME280;4155;50.118;8.714;2022-12-05T13:18:15;100268.38;;;5.89;88.65
8229;BME280;4155;50.118;8.714;2022-12-05T13:20:45;100274.09;;;5.94;89.00
8229;BME280;4155;50.118;8.714;2022-12-05T13:23:16;100270.31;;;6.13;88.53
8229;BME280;4155;50.118;8.714;2022-12-05T13:25:46;100265.50;;;6.08;87.92
8229;BME280;4155;50.118;8.714;2022-12-05T13:28:25;100271.28;;;5.96;88.53
8229;BME280;4155;50.118;8.714;2022-12-05T13:30:54;100263.81;;;5.99;87.96
8229;BME280;4155;50.118;8.714;2022-12-05T13:33:30;100276.94;;;6.01;87.81
8229;BME280;4155;50.118;8.714;2022-12-05T13:36:05;100263.41;;;5.86;88.69
8229;BME280;4155;50.118;8.714;2022-12-05T13:38:57;100264.59;;;5.92;88.56
8229;BME280;4155;50.118;8.714;2022-12-05T13:41:44;100273.50;;;6.08;88.02
8229;BME280;4155;50.118;8.714;2022-12-05T13:44:36;100268.00;;;6.10;87.69
8229;BME280;4155;50.118;8.714;2022-12-05T13:47:06;100271.59;;;5.93;87.85
8229;BME280;4155;50.118;8.714;2022-12-05T13:49:46;100278.56;;;5.94;88.59
8229;BME280;4155;50.118;8.714;2022-12-05T13:52:20;100273.94;;;5.96;88.49
8229;BME280;4155;50.118;8.714;2022-12-05T13:54:56;100277.75;;;5.93;88.91
8229;BME280;4155;50.118;8.714;2022-12-05T13:57:44;100267.63;;;6.05;89.32